sensor_id;sensor_type;location;lat;lon;timestamp;P1;durP1;ratioP1;P2;durP2;ratioP2
31676;SDS011;18385;51.572;6.578;2023-07-20T00:00:25;7.05;;;3.40;;
31676;SDS011;18385;51.572;6.578;2023-07-20T00:02:51;5.85;;;3.55;;
31676;SDS011;18385;51.572;6.578;2023-07-20T00:05:17;5.35;;;3.63;;
31676;SDS011;18385;51.572;6.578;2023-07-20T00:07:43;8.25;;;3.10;;
31676;SDS011;18385;51.572;6.578;2023-07-20T00:10:09;5.47;;;2.78;;
31676;SDS011;18385;51.572;6.578;2023-07-20T00:12:35;8.80;;;3.55;;
31676;SDS011;18385;51.572;6.578;2023-07-20T00:15:01;8.77;;;3.20;;
31676;SDS011;18385;51.572;6.578;2023-07-20T00:17:26;5.45;;;3.40;;
31676;SDS011;18385;51.572;6.578;2023-07-20T00:19:52;7.47;;;3.78;;
31676;SDS011;18385;51.572;6.578;2023-07-20T00:22:17;9.30;;;3.45;;
31676;SDS011;18385;51.572;6.578;2023-07-20T00:24:43;7.40;;;3.60;;
31676;SDS011;18385;51.572;6.578;2023-07-20T00:27:09;9.63;;;3.63;;
31676;SDS011;18385;51.572;6.578;2023-07-20T00:29:35;7.13;;;3.47;;
31676;SDS011;18385;51.572;6.578;2023-07-20T00:32:01;11.50;;;4.32;;
31676;SDS011;18385;51.572;6.578;2023-07-20T00:34:30;7.38;;;3.85;;
31676;SDS011;18385;51.572;6.578;2023-07-20T00:36:56;7.65;;;3.70;;
31676;SDS011;18385;51.572;6.578;2023-07-20T00:39:22;6.18;;;3.90;;
31676;SDS011;18385;51.572;6.578;2023-07-20T00:41:47;10.45;;;3.80;;
31676;SDS011;18385;51.572;6.578;2023-07-20T00:44:13;8.23;;;4.07;;
31676;SDS011;18385;51.572;6.578;2023-07-20T00:46:39;7.13;;;3.80;;
31676;SDS011;18385;51.572;6.578;2023-07-20T00:49:06;5.65;;;3.45;;
31676;SDS011;18385;51.572;6.578;2023-07-20T00:51:32;5.55;;;3.70;;
31676;SDS011;18385;51.572;6.578;2023-07-20T00:53:58;5.63;;;4.00;;
31676;SDS011;18385;51.572;6.578;2023-07-20T00:56:24;7.13;;;4.40;;
31676;SDS011;18385;51.572;6.578;2023-07-20T00:58:50;7.63;;;3.65;;
31676;SDS011;18385;51.572;6.578;2023-07-20T01:01:17;7.65;;;4.15;;
31676;SDS011;18385;51.572;6.578;2023-07-20T01:03:42;6.30;;;3.90;;
31676;SDS011;18385;51.572;6.578;2023-07-20T01:08:42;7.53;;;3.97;;
31676;SDS011;18385;51.572;6.578;2023-07-20T01:11:23;7.38;;;3.38;;
31676;SDS011;18385;51.572;6.578;2023-07-20T01:14:03;10.20;;;3.80;;
31676;SDS011;18385;51.572;6.578;2023-07-20T01:16:29;18.90;;;6.47;;
31676;SDS011;18385;51.572;6.578;2023-07-20T01:18:55;10.18;;;4.28;;
31676;SDS011;18385;51.572;6.578;2023-07-20T01:21:22;7.03;;;3.50;;
31676;SDS011;18385;51.572;6.578;2023-07-20T01:26:32;11.90;;;4.18;;
31676;SDS011;18385;51.572;6.578;2023-07-20T01:31:57;13.52;;;4.35;;
31676;SDS011;18385;51.572;6.578;2023-07-20T01:34:24;8.93;;;4.05;;
31676;SDS011;18385;51.572;6.578;2023-07-20T01:36:51;6.43;;;4.57;;
31676;SDS011;18385;51.572;6.578;2023-07-20T01:39:19;12.00;;;4.95;;
31676;SDS011;18385;51.572;6.578;2023-07-20T01:41:45;8.80;;;4.80;;
31676;SDS011;18385;51.572;6.578;2023-07-20T01:44:12;11.70;;;5.28;;
31676;SDS011;18385;51.572;6.578;2023-07-20T01:46:38;16.80;;;5.57;;
31676;SDS011;18385;51.572;6.578;2023-07-20T01:49:03;10.43;;;5.35;;
31676;SDS011;18385;51.572;6.578;2023-07-20T01:51:30;9.85;;;4.57;;
31676;SDS011;18385;51.572;6.578;2023-07-20T01:53:56;8.90;;;4.78;;
31676;SDS011;18385;51.572;6.578;2023-07-20T01:56:22;12.27;;;5.43;;
31676;SDS011;18385;51.572;6.578;2023-07-20T01:58:47;10.25;;;5.13;;
31676;SDS011;18385;51.572;6.578;2023-07-20T02:01:13;7.47;;;4.68;;
31676;SDS011;18385;51.572;6.578;2023-07-20T02:03:39;10.25;;;4.90;;
31676;SDS011;18385;51.572;6.578;2023-07-20T02:06:04;8.57;;;5.00;;
31676;SDS011;18385;51.572;6.578;2023-07-20T02:08:30;10.55;;;5.00;;
31676;SDS011;18385;51.572;6.578;2023-07-20T02:10:56;9.40;;;5.15;;
31676;SDS011;18385;51.572;6.578;2023-07-20T02:13:22;15.40;;;6.47;;
31676;SDS011;18385;51.572;6.578;2023-07-20T02:15:47;13.93;;;6.07;;
31676;SDS011;18385;51.572;6.578;2023-07-20T02:18:14;15.25;;;6.03;;
31676;SDS011;18385;51.572;6.578;2023-07-20T02:20:40;11.80;;;6.07;;
31676;SDS011;18385;51.572;6.578;2023-07-20T02:23:07;17.58;;;7.50;;
31676;SDS011;18385;51.572;6.578;2023-07-20T02:25:33;22.65;;;7.00;;
31676;SDS011;18385;51.572;6.578;2023-07-20T02:27:58;18.27;;;6.38;;
31676;SDS011;18385;51.572;6.578;2023-07-20T02:30:25;12.88;;;6.75;;
31676;SDS011;18385;51.572;6.578;2023-07-20T02:32:51;10.48;;;6.28;;
31676;SDS011;18385;51.572;6.578;2023-07-20T02:35:16;12.63;;;5.72;;
31676;SDS011;18385;51.572;6.578;2023-07-20T02:37:42;15.27;;;6.32;;
31676;SDS011;18385;51.572;6.578;2023-07-20T02:40:08;12.52;;;6.85;;
31676;SDS011;18385;51.572;6.578;2023-07-20T02:42:34;17.73;;;7.07;;
31676;SDS011;18385;51.572;6.578;2023-07-20T02:45:01;15.48;;;6.88;;
31676;SDS011;18385;51.572;6.578;2023-07-20T02:47:30;19.95;;;7.53;;
31676;SDS011;18385;51.572;6.578;2023-07-20T02:49:56;15.98;;;6.97;;
31676;SDS011;18385;51.572;6.578;2023-07-20T02:52:22;16.15;;;6.70;;
31676;SDS011;18385;51.572;6.578;2023-07-20T02:54:49;18.75;;;7.57;;
31676;SDS011;18385;51.572;6.578;2023-07-20T02:57:15;16.08;;;8.05;;
31676;SDS011;18385;51.572;6.578;2023-07-20T02:59:41;17.30;;;8.05;;
31676;SDS011;18385;51.572;6.578;2023-07-20T03:02:07;14.43;;;6.75;;
31676;SDS011;18385;51.572;6.578;2023-07-20T03:04:35;15.52;;;7.78;;
31676;SDS011;18385;51.572;6.578;2023-07-20T03:07:02;19.92;;;9.23;;
31676;SDS011;18385;51.572;6.578;2023-07-20T03:09:32;17.80;;;8.93;;
31676;SDS011;18385;51.572;6.578;2023-07-20T03:11:57;12.82;;;7.07;;
31676;SDS011;18385;51.572;6.578;2023-07-20T03:14:23;23.58;;;8.75;;
31676;SDS011;18385;51.572;6.578;2023-07-20T03:16:49;17.42;;;8.55;;
31676;SDS011;18385;51.572;6.578;2023-07-20T03:19:15;20.48;;;9.10;;
31676;SDS011;18385;51.572;6.578;2023-07-20T03:21:41;23.70;;;9.20;;
31676;SDS011;18385;51.572;6.578;2023-07-20T03:24:07;19.33;;;9.23;;
31676;SDS011;18385;51.572;6.578;2023-07-20T03:26:34;19.00;;;9.80;;
31676;SDS011;18385;51.572;6.578;2023-07-20T03:29:00;17.67;;;9.00;;
31676;SDS011;18385;51.572;6.578;2023-07-20T03:31:26;21.65;;;9.38;;
31676;SDS011;18385;51.572;6.578;2023-07-20T03:33:52;21.92;;;10.85;;
31676;SDS011;18385;51.572;6.578;2023-07-20T03:36:17;21.70;;;10.30;;
31676;SDS011;18385;51.572;6.578;2023-07-20T03:38:43;21.10;;;10.52;;
31676;SDS011;18385;51.572;6.578;2023-07-20T03:41:09;25.10;;;12.25;;
31676;SDS011;18385;51.572;6.578;2023-07-20T03:43:37;20.27;;;10.68;;
31676;SDS011;18385;51.572;6.578;2023-07-20T03:46:02;21.98;;;10.80;;
31676;SDS011;18385;51.572;6.578;2023-07-20T03:48:32;23.60;;;11.07;;
31676;SDS011;18385;51.572;6.578;2023-07-20T03:50:58;24.38;;;11.07;;
31676;SDS011;18385;51.572;6.578;2023-07-20T03:53:25;24.83;;;11.57;;
31676;SDS011;18385;51.572;6.578;2023-07-20T03:55:52;27.40;;;10.95;;
31676;SDS011;18385;51.572;6.578;2023-07-20T03:58:19;26.25;;;11.30;;
31676;SDS011;18385;51.572;6.578;2023-07-20T04:00:49;22.88;;;11.40;;
31676;SDS011;18385;51.572;6.578;2023-07-20T04:03:16;19.02;;;10.52;;
31676;SDS011;18385;51.572;6.578;2023-07-20T04:05:43;19.15;;;10.55;;
31676;SDS011;18385;51.572;6.578;2023-07-20T04:08:09;22.00;;;10.57;;
31676;SDS011;18385;51.572;6.578;2023-07-20T04:10:39;22.27;;;11.00;;
31676;SDS011;18385;51.572;6.578;2023-07-20T04:13:08;22.15;;;10.55;;
31676;SDS011;18385;51.572;6.578;2023-07-20T04:15:33;16.45;;;8.98;;
31676;SDS011;18385;51.572;6.578;2023-07-20T04:17:59;16.17;;;8.25;;
31676;SDS011;18385;51.572;6.578;2023-07-20T04:20:26;12.80;;;7.20;;
31676;SDS011;18385;51.572;6.578;2023-07-20T04:22:51;14.48;;;7.40;;
31676;SDS011;18385;51.572;6.578;2023-07-20T04:25:17;16.63;;;8.57;;
31676;SDS011;18385;51.572;6.578;2023-07-20T04:27:44;15.93;;;8.63;;
31676;SDS011;18385;51.572;6.578;2023-07-20T04:30:10;19.00;;;9.57;;
31676;SDS011;18385;51.572;6.578;2023-07-20T04:32:37;21.10;;;9.65;;
31676;SDS011;18385;51.572;6.578;2023-07-20T04:35:07;19.60;;;8.85;;
31676;SDS011;18385;51.572;6.578;2023-07-20T04:37:35;16.05;;;8.60;;
31676;SDS011;18385;51.572;6.578;2023-07-20T04:40:02;16.75;;;9.38;;
31676;SDS011;18385;51.572;6.578;2023-07-20T04:42:28;15.65;;;8.45;;
31676;SDS011;18385;51.572;6.578;2023-07-20T04:44:54;13.77;;;7.22;;
31676;SDS011;18385;51.572;6.578;2023-07-20T04:47:20;7.47;;;4.57;;
31676;SDS011;18385;51.572;6.578;2023-07-20T04:49:47;7.55;;;3.70;;
31676;SDS011;18385;51.572;6.578;2023-07-20T04:52:13;8.35;;;3.90;;
31676;SDS011;18385;51.572;6.578;2023-07-20T04:54:39;5.95;;;4.00;;
31676;SDS011;18385;51.572;6.578;2023-07-20T04:57:09;7.55;;;3.90;;
31676;SDS011;18385;51.572;6.578;2023-07-20T04:59:38;5.78;;;3.00;;
31676;SDS011;18385;51.572;6.578;2023-07-20T05:02:04;5.53;;;3.10;;
31676;SDS011;18385;51.572;6.578;2023-07-20T05:04:30;4.25;;;2.72;;
31676;SDS011;18385;51.572;6.578;2023-07-20T05:06:55;4.75;;;2.72;;
31676;SDS011;18385;51.572;6.578;2023-07-20T05:09:22;4.65;;;2.65;;
31676;SDS011;18385;51.572;6.578;2023-07-20T05:11:48;5.85;;;3.15;;
31676;SDS011;18385;51.572;6.578;2023-07-20T05:14:14;4.28;;;2.80;;
31676;SDS011;18385;51.572;6.578;2023-07-20T05:16:41;5.38;;;3.00;;
31676;SDS011;18385;51.572;6.578;2023-07-20T05:19:06;4.32;;;3.42;;
31676;SDS011;18385;51.572;6.578;2023-07-20T05:21:32;5.20;;;3.25;;
31676;SDS011;18385;51.572;6.578;2023-07-20T05:23:58;5.50;;;3.30;;
31676;SDS011;18385;51.572;6.578;2023-07-20T05:26:24;4.75;;;2.75;;
31676;SDS011;18385;51.572;6.578;2023-07-20T05:28:49;6.00;;;3.10;;
31676;SDS011;18385;51.572;6.578;2023-07-20T05:31:24;7.00;;;2.53;;
31676;SDS011;18385;51.572;6.578;2023-07-20T05:34:57;6.57;;;2.50;;
31676;SDS011;18385;51.572;6.578;2023-07-20T05:37:30;4.47;;;2.78;;
31676;SDS011;18385;51.572;6.578;2023-07-20T05:40:05;5.60;;;2.65;;
31676;SDS011;18385;51.572;6.578;2023-07-20T05:42:53;5.03;;;2.78;;
31676;SDS011;18385;51.572;6.578;2023-07-20T05:56:12;3.75;;;1.70;;
31676;SDS011;18385;51.572;6.578;2023-07-20T06:05:07;3.88;;;2.65;;
31676;SDS011;18385;51.572;6.578;2023-07-20T06:07:38;3.50;;;2.70;;
31676;SDS011;18385;51.572;6.578;2023-07-20T06:10:07;4.43;;;2.30;;
31676;SDS011;18385;51.572;6.578;2023-07-20T06:16:11;2.75;;;1.95;;
31676;SDS011;18385;51.572;6.578;2023-07-20T06:19:06;2.03;;;1.52;;
31676;SDS011;18385;51.572;6.578;2023-07-20T06:21:34;2.40;;;1.80;;
31676;SDS011;18385;51.572;6.578;2023-07-20T06:24:03;2.45;;;1.70;;
31676;SDS011;18385;51.572;6.578;2023-07-20T06:26:56;4.63;;;1.80;;
31676;SDS011;18385;51.572;6.578;2023-07-20T06:29:28;2.45;;;1.73;;
31676;SDS011;18385;51.572;6.578;2023-07-20T06:36:07;2.78;;;1.50;;
31676;SDS011;18385;51.572;6.578;2023-07-20T06:38:33;3.17;;;1.38;;
31676;SDS011;18385;51.572;6.578;2023-07-20T06:40:58;2.00;;;1.40;;
31676;SDS011;18385;51.572;6.578;2023-07-20T06:43:24;2.17;;;1.48;;
31676;SDS011;18385;51.572;6.578;2023-07-20T06:45:52;1.95;;;1.67;;
31676;SDS011;18385;51.572;6.578;2023-07-20T06:48:18;3.60;;;1.38;;
31676;SDS011;18385;51.572;6.578;2023-07-20T06:50:44;2.30;;;1.65;;
31676;SDS011;18385;51.572;6.578;2023-07-20T06:53:10;3.70;;;1.20;;
31676;SDS011;18385;51.572;6.578;2023-07-20T06:55:35;2.10;;;1.00;;
31676;SDS011;18385;51.572;6.578;2023-07-20T06:58:01;1.60;;;0.70;;
31676;SDS011;18385;51.572;6.578;2023-07-20T07:00:27;2.95;;;0.63;;
31676;SDS011;18385;51.572;6.578;2023-07-20T07:02:52;1.23;;;0.70;;
31676;SDS011;18385;51.572;6.578;2023-07-20T07:05:20;1.20;;;0.70;;
31676;SDS011;18385;51.572;6.578;2023-07-20T07:07:46;1.17;;;0.90;;
31676;SDS011;18385;51.572;6.578;2023-07-20T07:10:12;1.83;;;0.73;;
31676;SDS011;18385;51.572;6.578;2023-07-20T07:12:37;2.10;;;0.77;;
31676;SDS011;18385;51.572;6.578;2023-07-20T07:15:04;1.02;;;0.60;;
31676;SDS011;18385;51.572;6.578;2023-07-20T07:17:33;1.63;;;0.77;;
31676;SDS011;18385;51.572;6.578;2023-07-20T07:19:59;2.30;;;0.57;;
31676;SDS011;18385;51.572;6.578;2023-07-20T07:22:24;1.45;;;1.00;;
31676;SDS011;18385;51.572;6.578;2023-07-20T07:24:50;1.40;;;0.75;;
31676;SDS011;18385;51.572;6.578;2023-07-20T07:27:16;2.25;;;0.90;;
31676;SDS011;18385;51.572;6.578;2023-07-20T07:29:42;1.77;;;0.80;;
31676;SDS011;18385;51.572;6.578;2023-07-20T07:32:11;2.22;;;0.90;;
31676;SDS011;18385;51.572;6.578;2023-07-20T07:34:37;1.00;;;0.60;;
31676;SDS011;18385;51.572;6.578;2023-07-20T07:37:04;1.60;;;1.10;;
31676;SDS011;18385;51.572;6.578;2023-07-20T07:39:30;1.60;;;0.77;;
31676;SDS011;18385;51.572;6.578;2023-07-20T07:41:56;2.28;;;0.93;;
31676;SDS011;18385;51.572;6.578;2023-07-20T07:44:22;1.33;;;0.70;;
31676;SDS011;18385;51.572;6.578;2023-07-20T07:46:48;2.40;;;0.50;;
31676;SDS011;18385;51.572;6.578;2023-07-20T07:49:14;1.50;;;0.50;;
31676;SDS011;18385;51.572;6.578;2023-07-20T07:51:40;1.20;;;0.50;;
31676;SDS011;18385;51.572;6.578;2023-07-20T07:54:06;1.38;;;0.55;;
31676;SDS011;18385;51.572;6.578;2023-07-20T07:56:34;1.30;;;0.60;;
31676;SDS011;18385;51.572;6.578;2023-07-20T07:59:00;2.30;;;0.63;;
31676;SDS011;18385;51.572;6.578;2023-07-20T08:01:26;1.90;;;0.50;;
31676;SDS011;18385;51.572;6.578;2023-07-20T08:03:51;2.83;;;0.80;;
31676;SDS011;18385;51.572;6.578;2023-07-20T08:06:17;2.15;;;0.90;;
31676;SDS011;18385;51.572;6.578;2023-07-20T08:08:43;1.48;;;0.50;;
31676;SDS011;18385;51.572;6.578;2023-07-20T08:11:08;0.70;;;0.50;;
31676;SDS011;18385;51.572;6.578;2023-07-20T08:13:34;0.73;;;0.45;;
31676;SDS011;18385;51.572;6.578;2023-07-20T08:16:00;1.10;;;0.50;;
31676;SDS011;18385;51.572;6.578;2023-07-20T08:18:29;1.10;;;0.50;;
31676;SDS011;18385;51.572;6.578;2023-07-20T08:20:56;1.48;;;0.68;;
31676;SDS011;18385;51.572;6.578;2023-07-20T08:23:22;2.70;;;0.90;;
31676;SDS011;18385;51.572;6.578;2023-07-20T08:25:48;1.90;;;0.60;;
31676;SDS011;18385;51.572;6.578;2023-07-20T08:28:14;1.17;;;0.60;;
31676;SDS011;18385;51.572;6.578;2023-07-20T08:30:41;0.73;;;0.40;;
31676;SDS011;18385;51.572;6.578;2023-07-20T08:33:12;1.73;;;0.40;;
31676;SDS011;18385;51.572;6.578;2023-07-20T08:35:39;0.87;;;0.60;;
31676;SDS011;18385;51.572;6.578;2023-07-20T08:38:05;1.38;;;0.47;;
31676;SDS011;18385;51.572;6.578;2023-07-20T08:40:32;1.15;;;0.45;;
31676;SDS011;18385;51.572;6.578;2023-07-20T08:42:59;2.88;;;0.30;;
31676;SDS011;18385;51.572;6.578;2023-07-20T08:45:26;0.40;;;0.30;;
31676;SDS011;18385;51.572;6.578;2023-07-20T08:47:58;0.98;;;0.30;;
31676;SDS011;18385;51.572;6.578;2023-07-20T08:50:25;0.55;;;0.20;;
31676;SDS011;18385;51.572;6.578;2023-07-20T08:52:54;2.65;;;0.28;;
31676;SDS011;18385;51.572;6.578;2023-07-20T08:57:49;1.77;;;0.40;;
31676;SDS011;18385;51.572;6.578;2023-07-20T09:00:17;2.35;;;0.38;;
31676;SDS011;18385;51.572;6.578;2023-07-20T09:02:45;1.50;;;0.60;;
31676;SDS011;18385;51.572;6.578;2023-07-20T09:05:11;2.60;;;0.75;;
31676;SDS011;18385;51.572;6.578;2023-07-20T09:07:40;0.70;;;0.25;;
31676;SDS011;18385;51.572;6.578;2023-07-20T09:10:06;0.40;;;0.15;;
31676;SDS011;18385;51.572;6.578;2023-07-20T09:12:36;1.73;;;0.30;;
31676;SDS011;18385;51.572;6.578;2023-07-20T09:15:03;0.68;;;0.20;;
31676;SDS011;18385;51.572;6.578;2023-07-20T09:17:29;0.30;;;0.10;;
31676;SDS011;18385;51.572;6.578;2023-07-20T09:19:55;1.02;;;0.20;;
31676;SDS011;18385;51.572;6.578;2023-07-20T09:22:21;0.90;;;0.13;;
31676;SDS011;18385;51.572;6.578;2023-07-20T09:24:47;0.43;;;0.20;;
31676;SDS011;18385;51.572;6.578;2023-07-20T09:27:12;0.93;;;0.20;;
31676;SDS011;18385;51.572;6.578;2023-07-20T09:29:51;0.63;;;0.25;;
31676;SDS011;18385;51.572;6.578;2023-07-20T09:32:20;0.63;;;0.20;;
31676;SDS011;18385;51.572;6.578;2023-07-20T09:34:46;1.58;;;0.30;;
31676;SDS011;18385;51.572;6.578;2023-07-20T09:37:19;2.85;;;0.30;;
31676;SDS011;18385;51.572;6.578;2023-07-20T09:39:48;2.28;;;0.30;;
31676;SDS011;18385;51.572;6.578;2023-07-20T09:42:17;0.60;;;0.30;;
31676;SDS011;18385;51.572;6.578;2023-07-20T09:44:43;1.58;;;0.22;;
31676;SDS011;18385;51.572;6.578;2023-07-20T09:47:09;1.10;;;0.20;;
31676;SDS011;18385;51.572;6.578;2023-07-20T09:49:41;4.85;;;0.63;;
31676;SDS011;18385;51.572;6.578;2023-07-20T09:52:08;2.92;;;0.30;;
31676;SDS011;18385;51.572;6.578;2023-07-20T09:54:36;0.32;;;0.20;;
31676;SDS011;18385;51.572;6.578;2023-07-20T09:57:03;1.38;;;0.22;;
31676;SDS011;18385;51.572;6.578;2023-07-20T09:59:32;1.95;;;0.40;;
31676;SDS011;18385;51.572;6.578;2023-07-20T10:01:58;1.10;;;0.28;;
31676;SDS011;18385;51.572;6.578;2023-07-20T10:04:29;2.95;;;0.40;;
31676;SDS011;18385;51.572;6.578;2023-07-20T10:06:59;0.60;;;0.30;;
31676;SDS011;18385;51.572;6.578;2023-07-20T10:09:30;0.57;;;0.30;;
31676;SDS011;18385;51.572;6.578;2023-07-20T10:11:57;0.93;;;0.22;;
31676;SDS011;18385;51.572;6.578;2023-07-20T10:14:24;2.58;;;0.25;;
31676;SDS011;18385;51.572;6.578;2023-07-20T10:16:58;0.73;;;0.30;;
31676;SDS011;18385;51.572;6.578;2023-07-20T10:22:12;1.15;;;0.30;;
31676;SDS011;18385;51.572;6.578;2023-07-20T10:24:44;1.67;;;0.43;;
31676;SDS011;18385;51.572;6.578;2023-07-20T10:27:11;1.38;;;0.40;;
31676;SDS011;18385;51.572;6.578;2023-07-20T10:29:37;0.88;;;0.30;;
31676;SDS011;18385;51.572;6.578;2023-07-20T10:32:05;1.05;;;0.20;;
31676;SDS011;18385;51.572;6.578;2023-07-20T10:34:32;3.35;;;0.38;;
31676;SDS011;18385;51.572;6.578;2023-07-20T10:36:58;0.85;;;0.30;;
31676;SDS011;18385;51.572;6.578;2023-07-20T10:39:25;2.40;;;0.68;;
31676;SDS011;18385;51.572;6.578;2023-07-20T10:41:59;2.50;;;0.50;;
31676;SDS011;18385;51.572;6.578;2023-07-20T10:44:31;0.40;;;0.13;;
31676;SDS011;18385;51.572;6.578;2023-07-20T10:47:01;0.93;;;0.35;;
31676;SDS011;18385;51.572;6.578;2023-07-20T10:49:27;1.00;;;0.40;;
31676;SDS011;18385;51.572;6.578;2023-07-20T10:51:57;1.38;;;0.55;;
31676;SDS011;18385;51.572;6.578;2023-07-20T10:56:52;0.80;;;0.30;;
31676;SDS011;18385;51.572;6.578;2023-07-20T11:01:50;0.98;;;0.30;;
31676;SDS011;18385;51.572;6.578;2023-07-20T11:04:37;0.77;;;0.40;;
31676;SDS011;18385;51.572;6.578;2023-07-20T11:07:05;0.60;;;0.30;;
31676;SDS011;18385;51.572;6.578;2023-07-20T11:09:34;0.63;;;0.30;;
31676;SDS011;18385;51.572;6.578;2023-07-20T11:12:11;0.90;;;0.45;;
31676;SDS011;18385;51.572;6.578;2023-07-20T11:14:52;1.50;;;0.30;;
31676;SDS011;18385;51.572;6.578;2023-07-20T11:17:20;1.67;;;0.30;;
31676;SDS011;18385;51.572;6.578;2023-07-20T11:19:55;0.60;;;0.20;;
31676;SDS011;18385;51.572;6.578;2023-07-20T11:22:21;0.38;;;0.20;;
31676;SDS011;18385;51.572;6.578;2023-07-20T11:24:47;0.57;;;0.30;;
31676;SDS011;18385;51.572;6.578;2023-07-20T11:27:14;1.05;;;0.25;;
31676;SDS011;18385;51.572;6.578;2023-07-20T11:29:40;0.30;;;0.10;;
31676;SDS011;18385;51.572;6.578;2023-07-20T11:32:06;1.55;;;0.30;;
31676;SDS011;18385;51.572;6.578;2023-07-20T11:34:33;0.88;;;0.15;;
31676;SDS011;18385;51.572;6.578;2023-07-20T11:37:00;1.48;;;0.22;;
31676;SDS011;18385;51.572;6.578;2023-07-20T11:39:26;0.43;;;0.20;;
31676;SDS011;18385;51.572;6.578;2023-07-20T11:41:52;0.68;;;0.20;;
31676;SDS011;18385;51.572;6.578;2023-07-20T11:44:20;0.68;;;0.20;;
31676;SDS011;18385;51.572;6.578;2023-07-20T11:46:59;1.30;;;0.30;;
31676;SDS011;18385;51.572;6.578;2023-07-20T11:49:29;1.00;;;0.20;;
31676;SDS011;18385;51.572;6.578;2023-07-20T11:51:55;0.82;;;0.20;;
31676;SDS011;18385;51.572;6.578;2023-07-20T11:54:22;0.38;;;0.17;;
31676;SDS011;18385;51.572;6.578;2023-07-20T11:56:52;0.73;;;0.30;;
31676;SDS011;18385;51.572;6.578;2023-07-20T11:59:19;1.85;;;0.43;;
31676;SDS011;18385;51.572;6.578;2023-07-20T12:01:44;3.25;;;1.35;;
31676;SDS011;18385;51.572;6.578;2023-07-20T12:04:10;1.40;;;0.30;;
31676;SDS011;18385;51.572;6.578;2023-07-20T12:06:36;0.35;;;0.20;;
31676;SDS011;18385;51.572;6.578;2023-07-20T12:09:01;1.65;;;0.30;;
31676;SDS011;18385;51.572;6.578;2023-07-20T12:11:38;0.20;;;0.10;;
31676;SDS011;18385;51.572;6.578;2023-07-20T12:14:06;1.42;;;0.25;;
31676;SDS011;18385;51.572;6.578;2023-07-20T12:16:32;0.55;;;0.20;;
31676;SDS011;18385;51.572;6.578;2023-07-20T12:18:59;0.57;;;0.20;;
31676;SDS011;18385;51.572;6.578;2023-07-20T12:21:29;0.45;;;0.25;;
31676;SDS011;18385;51.572;6.578;2023-07-20T12:23:59;1.50;;;0.22;;
31676;SDS011;18385;51.572;6.578;2023-07-20T12:26:25;0.77;;;0.20;;
31676;SDS011;18385;51.572;6.578;2023-07-20T12:28:54;0.82;;;0.30;;
31676;SDS011;18385;51.572;6.578;2023-07-20T12:31:20;0.55;;;0.50;;
31676;SDS011;18385;51.572;6.578;2023-07-20T12:33:47;0.88;;;0.22;;
31676;SDS011;18385;51.572;6.578;2023-07-20T12:36:13;1.70;;;0.20;;
31676;SDS011;18385;51.572;6.578;2023-07-20T12:38:39;0.98;;;0.50;;
31676;SDS011;18385;51.572;6.578;2023-07-20T12:41:06;3.03;;;0.30;;
31676;SDS011;18385;51.572;6.578;2023-07-20T12:43:32;0.85;;;0.32;;
31676;SDS011;18385;51.572;6.578;2023-07-20T12:45:59;1.02;;;0.47;;
31676;SDS011;18385;51.572;6.578;2023-07-20T12:48:24;0.80;;;0.30;;
31676;SDS011;18385;51.572;6.578;2023-07-20T12:50:50;0.30;;;0.20;;
31676;SDS011;18385;51.572;6.578;2023-07-20T12:53:16;1.52;;;0.30;;
31676;SDS011;18385;51.572;6.578;2023-07-20T12:55:41;0.98;;;0.40;;
31676;SDS011;18385;51.572;6.578;2023-07-20T12:58:07;0.80;;;0.20;;
31676;SDS011;18385;51.572;6.578;2023-07-20T13:00:34;0.60;;;0.35;;
31676;SDS011;18385;51.572;6.578;2023-07-20T13:02:59;1.02;;;0.20;;
31676;SDS011;18385;51.572;6.578;2023-07-20T13:05:29;0.93;;;0.63;;
31676;SDS011;18385;51.572;6.578;2023-07-20T13:07:58;0.60;;;0.22;;
31676;SDS011;18385;51.572;6.578;2023-07-20T13:10:24;0.68;;;0.20;;
31676;SDS011;18385;51.572;6.578;2023-07-20T13:12:50;0.55;;;0.25;;
31676;SDS011;18385;51.572;6.578;2023-07-20T13:15:16;0.68;;;0.20;;
31676;SDS011;18385;51.572;6.578;2023-07-20T13:17:42;0.55;;;0.20;;
31676;SDS011;18385;51.572;6.578;2023-07-20T13:20:09;1.20;;;0.20;;
31676;SDS011;18385;51.572;6.578;2023-07-20T13:22:39;1.08;;;0.20;;
31676;SDS011;18385;51.572;6.578;2023-07-20T13:25:06;0.93;;;0.30;;
31676;SDS011;18385;51.572;6.578;2023-07-20T13:27:33;0.30;;;0.20;;
31676;SDS011;18385;51.572;6.578;2023-07-20T13:29:59;4.95;;;0.30;;
31676;SDS011;18385;51.572;6.578;2023-07-20T13:32:31;0.47;;;0.10;;
31676;SDS011;18385;51.572;6.578;2023-07-20T13:34:57;0.20;;;0.10;;
31676;SDS011;18385;51.572;6.578;2023-07-20T13:37:23;2.15;;;0.20;;
31676;SDS011;18385;51.572;6.578;2023-07-20T13:39:48;0.82;;;0.30;;
31676;SDS011;18385;51.572;6.578;2023-07-20T13:42:14;1.77;;;0.30;;
31676;SDS011;18385;51.572;6.578;2023-07-20T13:44:40;0.93;;;0.20;;
31676;SDS011;18385;51.572;6.578;2023-07-20T13:47:06;2.08;;;0.20;;
31676;SDS011;18385;51.572;6.578;2023-07-20T13:49:32;0.70;;;0.20;;
31676;SDS011;18385;51.572;6.578;2023-07-20T13:51:57;0.95;;;0.30;;
31676;SDS011;18385;51.572;6.578;2023-07-20T13:54:23;1.85;;;0.20;;
31676;SDS011;18385;51.572;6.578;2023-07-20T13:56:50;0.55;;;0.20;;
31676;SDS011;18385;51.572;6.578;2023-07-20T13:59:16;2.25;;;0.28;;
31676;SDS011;18385;51.572;6.578;2023-07-20T14:01:45;0.40;;;0.20;;
31676;SDS011;18385;51.572;6.578;2023-07-20T14:04:12;0.45;;;0.30;;
31676;SDS011;18385;51.572;6.578;2023-07-20T14:06:37;2.47;;;0.40;;
31676;SDS011;18385;51.572;6.578;2023-07-20T14:09:03;1.13;;;0.30;;
31676;SDS011;18385;51.572;6.578;2023-07-20T14:11:29;1.02;;;0.30;;
31676;SDS011;18385;51.572;6.578;2023-07-20T14:13:55;0.80;;;0.20;;
31676;SDS011;18385;51.572;6.578;2023-07-20T14:16:21;0.90;;;0.40;;
31676;SDS011;18385;51.572;6.578;2023-07-20T14:18:50;0.50;;;0.20;;
31676;SDS011;18385;51.572;6.578;2023-07-20T14:21:16;2.58;;;0.30;;
31676;SDS011;18385;51.572;6.578;2023-07-20T14:23:46;7.35;;;0.80;;
31676;SDS011;18385;51.572;6.578;2023-07-20T14:26:13;0.73;;;0.30;;
31676;SDS011;18385;51.572;6.578;2023-07-20T14:28:39;0.93;;;0.20;;
31676;SDS011;18385;51.572;6.578;2023-07-20T14:31:04;1.35;;;0.38;;
31676;SDS011;18385;51.572;6.578;2023-07-20T14:33:31;1.05;;;0.22;;
31676;SDS011;18385;51.572;6.578;2023-07-20T14:35:57;0.90;;;0.30;;
31676;SDS011;18385;51.572;6.578;2023-07-20T14:38:23;0.73;;;0.38;;
31676;SDS011;18385;51.572;6.578;2023-07-20T14:40:48;1.35;;;0.28;;
31676;SDS011;18385;51.572;6.578;2023-07-20T14:43:14;1.52;;;0.57;;
31676;SDS011;18385;51.572;6.578;2023-07-20T14:45:40;1.58;;;0.32;;
31676;SDS011;18385;51.572;6.578;2023-07-20T14:48:06;3.22;;;0.40;;
31676;SDS011;18385;51.572;6.578;2023-07-20T14:50:32;1.40;;;0.40;;
31676;SDS011;18385;51.572;6.578;2023-07-20T14:52:58;0.35;;;0.13;;
31676;SDS011;18385;51.572;6.578;2023-07-20T14:55:24;0.63;;;0.15;;
31676;SDS011;18385;51.572;6.578;2023-07-20T14:57:50;2.33;;;0.20;;
31676;SDS011;18385;51.572;6.578;2023-07-20T15:00:16;0.88;;;0.20;;
31676;SDS011;18385;51.572;6.578;2023-07-20T15:02:42;0.85;;;0.28;;
31676;SDS011;18385;51.572;6.578;2023-07-20T15:05:09;0.82;;;0.30;;
31676;SDS011;18385;51.572;6.578;2023-07-20T15:07:35;1.15;;;0.30;;
31676;SDS011;18385;51.572;6.578;2023-07-20T15:10:02;1.15;;;0.43;;
31676;SDS011;18385;51.572;6.578;2023-07-20T15:12:29;1.58;;;0.32;;
31676;SDS011;18385;51.572;6.578;2023-07-20T15:15:05;0.60;;;0.30;;
31676;SDS011;18385;51.572;6.578;2023-07-20T15:17:33;0.77;;;0.20;;
31676;SDS011;18385;51.572;6.578;2023-07-20T15:19:59;1.05;;;0.40;;
31676;SDS011;18385;51.572;6.578;2023-07-20T15:22:29;1.73;;;0.20;;
31676;SDS011;18385;51.572;6.578;2023-07-20T15:24:56;2.20;;;0.40;;
31676;SDS011;18385;51.572;6.578;2023-07-20T15:27:21;0.90;;;0.45;;